Meath Environmental Platform

Observations for Trim Patrick St

Time AQI Temp °C Hum % Pres Pa CO μg/m³ H₂S μg/m³ NO μg/m³ NO₂ μg/m³ O₃ μg/m³ SO₂ μg/m³ PM1 μg/m³ PM2.5 μg/m³ PM10 μg/m³
Wednesday 26 August 2026
19:33 3 24.6 54 70,753 0 27.6 0.97 50.74 120.73 8.33 7.14 12.91 14.21
19:32 3 24.7 54 70,643 0 26.56 0.99 48.16 113.34 8.47 7.14 12.93 14.22
19:31 3 24.8 54 70,524 0 26.27 1.04 51.88 111.8 8.39 6.29 12.95 14.24
19:30 3 24.9 54 70,394 0 27.57 1.19 55.58 116.03 8.99 8 13.71 15.08
19:29 3 24.9 54 70,284 0 27.54 1.18 51.03 111.28 8.69 8 14.49 15.94
19:28 3 25 54 70,198 0 26.98 1.2 49.71 116.58 8.74 6.29 11.48 12.63
19:27 3 25.1 54 70,121 0 28.97 1.08 65.79 106.85 8.87 8.86 13.75 15.13
19:26 3 25.2 53 70,044 0 28.36 1.16 60.55 120.32 8.45 6.29 12.26 13.49
19:25 3 25.3 53 69,972 0 28.15 1.17 61.74 114.66 8.8 8.86 14.54 16
19:24 3 25.4 53 69,909 0 28.62 1.13 63.8 123.34 8.77 8.86 13.79 15.17
19:23 3 25.4 53 69,858 0 28.25 1.11 59.17 122.19 8.41 9.71 16.08 17.69
19:22 3 25.5 53 69,820 0 28.89 1.28 64.21 113.29 8.84 7.14 14.59 16.04
19:21 3 25.6 52 69,736 0 28.3 1.09 53.57 136.03 8.52 8.86 14.59 16.05
19:20 3 25.6 52 69,689 0 30.38 0.91 56.1 140.94 9.27 8.86 16.11 17.72
19:19 3 25.6 52 69,658 0 28.99 0.99 66.36 118.53 8.62 9.71 15.38 16.92
19:18 3 25.7 52 69,616 0 30.08 0.98 53.17 148.97 9.95 7.14 13.88 15.27
19:17 3 25.8 52 69,589 0 29.34 0.85 49.37 149.03 9.4 6.29 13.15 14.47
19:16 3 25.9 52 69,561 0 27.44 1.11 43.95 143.89 9.28 6.29 13.16 14.48
19:15 3 26 51 69,521 0 27.89 1.06 47.52 136.64 9.34 7.14 13.93 15.32
19:14 3 26.1 51 69,501 0 31.14 1.09 63.04 137.09 9.91 6.29 12.41 13.65